Time;durP1;ratioP1;P1;durP2;ratioP2;P2;SDS_P1;SDS_P2;PMS_P1;PMS_P2;Temp;Humidity;BMP_temperature;BMP_pressure;BME280_temperature;BME280_humidity;BME280_pressure;Samples;Min_cycle;Max_cycle;Signal;HPM_P1;HPM_P2
2022/11/03 00:01:33;;;;;;;20.70;12.40;;;;;;;13.85;54.71;100827.85;106453;1300;21974;-66
2022/11/03 00:03:59;;;;;;;18.70;13.10;;;;;;;13.82;54.95;100833.35;106463;1295;21970;-66
2022/11/03 00:06:26;;;;;;;18.80;13.60;;;;;;;13.83;55.09;100833.69;106418;1300;21957;-65
2022/11/03 00:08:52;;;;;;;19.50;13.40;;;;;;;13.86;55.16;100835.05;106328;1300;21959;-66
2022/11/03 00:11:18;;;;;;;21.60;14.00;;;;;;;13.84;55.23;100833.14;106435;1300;21973;-67
2022/11/03 00:13:44;;;;;;;18.90;13.70;;;;;;;13.83;55.46;100833.87;106338;1300;21959;-66
2022/11/03 00:16:11;;;;;;;20.80;15.60;;;;;;;13.83;55.42;100832.27;106249;1300;21967;-66
2022/11/03 00:18:40;;;;;;;24.80;15.20;;;;;;;13.80;55.56;100831.10;106306;1300;21971;-66
2022/11/03 00:21:09;;;;;;;19.40;13.40;;;;;;;13.81;55.77;100830.38;106347;1300;21961;-65
2022/11/03 00:23:37;;;;;;;20.80;14.30;;;;;;;13.83;55.59;100827.16;106375;1300;22354;-66
2022/11/03 00:26:04;;;;;;;18.90;13.90;;;;;;;13.85;55.53;100828.19;106467;1296;21956;-67
2022/11/03 00:28:32;;;;;;;23.50;15.30;;;;;;;13.86;55.51;100823.41;106531;1300;21959;-66
2022/11/03 00:31:03;;;;;;;25.50;15.50;;;;;;;13.86;55.31;100821.65;106374;1300;22828;-66
2022/11/03 00:33:32;;;;;;;22.40;14.40;;;;;;;13.84;55.25;100822.56;106374;1300;22730;-66
2022/11/03 00:36:00;;;;;;;21.40;13.70;;;;;;;13.82;55.23;100823.12;106294;1300;23115;-66
2022/11/03 00:38:29;;;;;;;25.90;13.80;;;;;;;13.78;55.14;100824.44;106375;1300;21965;-66
2022/11/03 00:41:00;;;;;;;17.90;12.70;;;;;;;13.72;55.20;100830.54;106250;1300;22090;-66
2022/11/03 00:43:27;;;;;;;18.50;13.50;;;;;;;13.72;55.04;100832.99;108361;1300;21897;-67
2022/11/03 00:45:53;;;;;;;25.40;14.70;;;;;;;13.69;54.95;100836.58;108443;1298;21804;-66
2022/11/03 00:48:28;;;;;;;21.00;13.10;;;;;;;13.66;54.73;100835.25;108412;1300;21769;-66
2022/11/03 00:51:13;;;;;;;17.20;12.80;;;;;;;13.63;54.66;100834.23;107428;1300;24389;-66
2022/11/03 00:53:56;;;;;;;20.90;13.50;;;;;;;13.57;54.68;100832.58;106358;1291;21963;-66
2022/11/03 00:56:26;;;;;;;23.50;14.10;;;;;;;13.51;54.72;100830.54;107237;1300;21962;-66
2022/11/03 00:58:53;;;;;;;21.10;13.30;;;;;;;13.48;54.67;100833.41;106294;1300;21956;-66
2022/11/03 01:01:26;;;;;;;22.60;13.10;;;;;;;13.43;54.47;100831.40;106290;1300;21961;-67
2022/11/03 01:06:50;;;;;;;18.90;12.30;;;;;;;13.34;54.49;100831.16;106265;1292;21953;-66
2022/11/03 01:09:25;;;;;;;18.70;12.30;;;;;;;13.28;54.51;100832.67;106457;1300;24346;-66
2022/11/03 01:12:09;;;;;;;21.00;13.90;;;;;;;13.21;54.46;100839.13;106241;1300;21957;-66
2022/11/03 01:14:41;;;;;;;29.60;13.80;;;;;;;13.12;54.58;100843.31;106343;1292;21953;-66
2022/11/03 01:17:08;;;;;;;19.50;13.70;;;;;;;13.06;54.63;100844.10;106352;1300;21955;-66
2022/11/03 01:19:34;;;;;;;19.10;12.60;;;;;;;13.01;54.60;100847.71;106336;1300;21952;-66
2022/11/03 01:22:00;;;;;;;19.20;13.20;;;;;;;12.96;54.50;100848.31;106295;1297;22029;-65
2022/11/03 01:24:27;;;;;;;18.10;12.10;;;;;;;12.93;54.38;100844.83;106307;1298;21972;-65
2022/11/03 01:26:53;;;;;;;18.00;11.70;;;;;;;12.88;54.42;100844.19;106252;1300;21943;-65
2022/11/03 01:29:19;;;;;;;22.10;14.10;;;;;;;12.85;54.46;100847.77;106252;1300;21957;-66
2022/11/03 01:31:47;;;;;;;20.40;14.40;;;;;;;12.79;54.42;100849.60;106289;1299;21998;-67
2022/11/03 01:34:15;;;;;;;20.50;14.50;;;;;;;12.76;54.34;100851.59;106269;1300;21955;-67
2022/11/03 01:36:41;;;;;;;17.70;12.70;;;;;;;12.72;54.42;100849.35;106287;1300;21953;-66
2022/11/03 01:39:12;;;;;;;19.80;13.30;;;;;;;12.68;54.56;100844.83;106363;1300;21950;-67
2022/11/03 01:41:38;;;;;;;19.20;12.60;;;;;;;12.65;54.66;100843.63;106281;1299;21959;-66
2022/11/03 01:44:06;;;;;;;17.00;12.00;;;;;;;12.62;54.46;100840.85;106330;1298;21950;-66
2022/11/03 01:46:53;;;;;;;22.80;14.30;;;;;;;12.58;54.55;100843.18;106302;1300;21962;-66
2022/11/03 01:49:21;;;;;;;20.80;13.60;;;;;;;12.55;54.45;100848.35;106276;1300;22424;-65
2022/11/03 01:51:51;;;;;;;19.50;13.90;;;;;;;12.53;54.51;100854.55;106276;1300;21995;-66
2022/11/03 01:54:18;;;;;;;19.30;13.10;;;;;;;12.49;54.52;100861.45;107330;1300;23695;-68
2022/11/03 01:56:47;;;;;;;18.00;12.30;;;;;;;12.45;54.49;100864.46;106336;1300;21968;-66
2022/11/03 01:59:14;;;;;;;18.60;12.70;;;;;;;12.45;54.76;100864.84;106494;1300;21992;-67
2022/11/03 02:01:42;;;;;;;18.00;11.60;;;;;;;12.45;54.78;100865.52;106322;1292;21931;-66
2022/11/03 02:04:12;;;;;;;19.80;13.30;;;;;;;12.47;54.73;100863.92;105478;1297;1006307;-65
2022/11/03 02:06:39;;;;;;;18.30;12.50;;;;;;;12.49;54.82;100865.14;106262;1300;23641;-67
2022/11/03 02:09:07;;;;;;;20.40;13.10;;;;;;;12.49;54.77;100867.95;106268;1300;21955;-66
2022/11/03 02:14:20;;;;;;;17.70;11.50;;;;;;;12.46;54.55;100873.45;106306;1301;21958;-66
2022/11/03 02:16:52;;;;;;;17.70;11.50;;;;;;;12.40;54.67;100875.63;106309;1299;21954;-67
2022/11/03 02:19:30;;;;;;;20.50;12.10;;;;;;;12.34;54.95;100877.11;106306;1300;23073;-67
2022/11/03 02:22:03;;;;;;;20.10;13.90;;;;;;;12.30;55.14;100876.46;106389;1300;21978;-66
2022/11/03 02:24:46;;;;;;;21.50;13.60;;;;;;;12.27;55.51;100873.49;106292;1300;23732;-67
2022/11/03 02:27:15;;;;;;;20.90;12.40;;;;;;;12.25;55.50;100871.77;106292;1298;21953;-65
2022/11/03 02:29:41;;;;;;;19.80;13.50;;;;;;;12.24;55.49;100870.53;106326;1300;23650;-67
2022/11/03 02:32:37;;;;;;;20.80;13.60;;;;;;;12.24;55.49;100873.70;106257;1301;21975;-67
2022/11/03 02:35:24;;;;;;;19.40;13.30;;;;;;;12.22;55.87;100876.71;106394;1300;21961;-67
2022/11/03 02:37:54;;;;;;;19.40;13.20;;;;;;;12.22;56.01;100878.48;106353;1300;21970;-67
2022/11/03 02:40:42;;;;;;;25.40;13.40;;;;;;;12.21;56.18;100877.42;106375;1300;21945;-65
2022/11/03 02:43:07;;;;;;;22.90;13.90;;;;;;;12.20;56.21;100881.48;106313;1300;21951;-66
2022/11/03 02:45:34;;;;;;;20.00;13.00;;;;;;;12.19;56.10;100887.13;106067;1303;23754;-68
2022/11/03 02:48:01;;;;;;;20.20;13.20;;;;;;;12.18;56.25;100888.55;106322;1300;21953;-68
2022/11/03 02:50:31;;;;;;;23.70;14.00;;;;;;;12.14;56.07;100890.17;106406;1300;21961;-67
2022/11/03 02:52:56;;;;;;;18.90;12.00;;;;;;;12.11;55.91;100896.72;106453;1294;21980;-68
2022/11/03 02:55:47;;;;;;;22.00;13.80;;;;;;;12.13;55.86;100899.16;106352;1300;21959;-64
2022/11/03 02:58:41;;;;;;;19.80;14.50;;;;;;;12.13;55.65;100903.20;106181;1298;21964;-67
2022/11/03 03:01:45;;;;;;;17.40;12.20;;;;;;;12.14;55.32;100902.99;106291;1300;22001;-67
2022/11/03 03:04:24;;;;;;;19.90;11.60;;;;;;;12.14;55.24;100905.48;106355;1300;21972;-65
2022/11/03 03:07:00;;;;;;;17.60;11.30;;;;;;;12.13;55.18;100901.10;106183;1300;23091;-65
2022/11/03 03:09:34;;;;;;;18.30;11.70;;;;;;;12.10;55.10;100896.90;108405;1298;21896;-66
2022/11/03 03:12:00;;;;;;;18.70;12.80;;;;;;;12.02;54.96;100895.92;108216;1300;21834;-65
2022/11/03 03:14:38;;;;;;;15.90;11.10;;;;;;;11.95;55.07;100896.84;106033;1301;23188;-67
2022/11/03 03:17:19;;;;;;;17.30;11.00;;;;;;;11.88;54.98;100896.21;106412;1300;21969;-67
2022/11/03 03:20:03;;;;;;;19.60;11.70;;;;;;;11.83;55.13;100895.55;106314;1300;21970;-67
2022/11/03 03:22:32;;;;;;;19.30;12.20;;;;;;;11.78;55.16;100902.63;106358;1300;21991;-68
2022/11/03 03:25:25;;;;;;;19.40;12.80;;;;;;;11.71;54.94;100900.92;106252;1300;21956;-68
2022/11/03 03:27:56;;;;;;;21.60;13.10;;;;;;;11.64;55.10;100898.52;106267;1300;22014;-68
2022/11/03 03:30:21;;;;;;;19.00;12.00;;;;;;;11.57;54.91;100898.23;106231;1301;21951;-65
2022/11/03 03:32:52;;;;;;;16.70;11.90;;;;;;;11.53;55.17;100899.48;106179;1285;21956;-67
2022/11/03 03:35:23;;;;;;;19.20;12.60;;;;;;;11.53;55.15;100901.94;106169;1302;21966;-68
2022/11/03 03:37:52;;;;;;;20.20;13.30;;;;;;;11.54;55.06;100901.93;106336;1300;21948;-66
2022/11/03 03:40:21;;;;;;;17.90;12.60;;;;;;;11.56;55.12;100902.27;106293;1300;21961;-65
2022/11/03 03:42:46;;;;;;;16.40;10.80;;;;;;;11.57;54.96;100900.68;106279;1302;21959;-68
2022/11/03 03:45:12;;;;;;;16.50;11.00;;;;;;;11.58;55.06;100902.09;106164;1302;21948;-67
2022/11/03 03:47:39;;;;;;;16.60;10.90;;;;;;;11.53;54.95;100902.47;106279;1298;21963;-68
2022/11/03 03:50:05;;;;;;;17.30;11.80;;;;;;;11.50;55.01;100903.55;106309;1300;21998;-65
2022/11/03 03:52:32;;;;;;;18.20;11.70;;;;;;;11.49;55.11;100903.04;106307;1301;21963;-67
2022/11/03 03:54:58;;;;;;;19.10;13.10;;;;;;;11.50;55.22;100900.38;106264;1300;22039;-65
2022/11/03 03:57:24;;;;;;;19.20;13.10;;;;;;;11.51;55.18;100901.26;106374;1299;21965;-65
2022/11/03 03:59:50;;;;;;;16.70;11.60;;;;;;;11.53;55.20;100906.70;106369;1302;21962;-65
2022/11/03 04:02:16;;;;;;;18.50;12.10;;;;;;;11.51;55.34;100908.27;106243;1302;21966;-65
2022/11/03 04:04:42;;;;;;;21.20;11.20;;;;;;;11.51;55.38;100908.81;106343;1300;21972;-64
2022/11/03 04:09:54;;;;;;;17.00;11.80;;;;;;;11.61;55.70;100902.94;106220;1300;23635;-68
2022/11/03 04:23:20;;;;;;;18.40;11.80;;;;;;;12.03;56.08;100919.66;106272;1300;21959;-63
2022/11/03 04:25:53;;;;;;;20.10;12.80;;;;;;;12.14;56.19;100922.89;106248;1299;21955;-68
2022/11/03 04:28:20;;;;;;;16.20;11.60;;;;;;;12.27;55.94;100922.23;107181;1300;21968;-63
2022/11/03 04:30:47;;;;;;;20.30;12.50;;;;;;;12.34;56.12;100916.36;106261;1300;22748;-66
2022/11/03 04:33:17;;;;;;;18.50;11.80;;;;;;;12.43;55.98;100916.60;106208;1300;21951;-64
2022/11/03 04:35:43;;;;;;;17.70;11.20;;;;;;;12.54;55.94;100912.25;106405;1300;23074;-64
2022/11/03 04:38:12;;;;;;;26.00;13.30;;;;;;;12.65;55.97;100913.35;106298;1300;23607;-65
2022/11/03 04:40:45;;;;;;;22.60;14.10;;;;;;;12.77;55.70;100914.61;106259;1300;21966;-65
2022/11/03 04:43:16;;;;;;;23.80;12.70;;;;;;;12.79;55.74;100915.83;106308;1300;21962;-67
2022/11/03 04:45:43;;;;;;;17.10;11.20;;;;;;;12.81;55.85;100921.43;106314;1300;21956;-67
2022/11/03 04:48:13;;;;;;;20.30;12.40;;;;;;;12.85;55.99;100924.72;106332;1300;21977;-63
2022/11/03 04:50:39;;;;;;;17.70;12.00;;;;;;;12.89;56.17;100927.33;106335;1300;21957;-66
2022/11/03 04:53:11;;;;;;;22.30;12.60;;;;;;;12.96;56.13;100925.81;106414;1300;22497;-67
2022/11/03 04:55:41;;;;;;;23.10;13.80;;;;;;;13.07;56.38;100928.67;106447;1295;22322;-66
2022/11/03 04:58:19;;;;;;;24.60;11.10;;;;;;;13.15;56.32;100930.14;106338;1300;21971;-69
2022/11/03 05:00:46;;;;;;;20.90;10.70;;;;;;;13.24;56.45;100930.36;106275;1300;21974;-66
2022/11/03 05:03:14;;;;;;;18.70;11.60;;;;;;;13.29;56.63;100924.28;106418;1286;21954;-67
2022/11/03 05:05:40;;;;;;;18.00;11.00;;;;;;;13.36;56.51;100925.06;106363;1300;21962;-67
2022/11/03 05:08:08;;;;;;;26.90;11.10;;;;;;;13.45;56.48;100927.60;105976;1300;302832;-66
2022/11/03 05:10:33;;;;;;;17.90;10.30;;;;;;;13.54;56.74;100929.23;106484;1300;21959;-68
2022/11/03 05:13:01;;;;;;;17.10;11.10;;;;;;;13.66;56.85;100936.81;106299;1300;21967;-65
2022/11/03 05:15:28;;;;;;;15.60;10.00;;;;;;;13.74;57.11;100940.56;106281;1300;21965;-68
2022/11/03 05:17:55;;;;;;;15.60;9.80;;;;;;;13.84;57.04;100945.16;106291;1300;21950;-68
2022/11/03 05:20:44;;;;;;;15.60;9.10;;;;;;;13.92;57.14;100940.77;106359;1300;21998;-67
2022/11/03 05:23:10;;;;;;;17.70;9.90;;;;;;;14.02;57.12;100939.21;106320;1298;21980;-68
2022/11/03 05:25:42;;;;;;;16.80;10.40;;;;;;;14.10;57.03;100936.95;106447;1300;21965;-66
2022/11/03 05:28:32;;;;;;;15.80;8.90;;;;;;;14.17;57.09;100943.16;106280;1300;22063;-68
2022/11/03 05:30:59;;;;;;;14.30;9.30;;;;;;;14.26;57.17;100949.00;106266;1300;21954;-63
2022/11/03 05:33:29;;;;;;;13.30;9.20;;;;;;;14.34;57.12;100949.92;106295;1300;21979;-66
2022/11/03 05:35:56;;;;;;;21.10;10.50;;;;;;;14.45;57.22;100952.36;106367;1300;21969;-64
2022/11/03 05:38:22;;;;;;;17.50;10.00;;;;;;;14.55;56.99;100951.64;106323;1300;21962;-64
2022/11/03 05:40:49;;;;;;;18.80;9.80;;;;;;;14.61;56.79;100949.75;106283;1300;21968;-67
2022/11/03 05:43:15;;;;;;;16.40;9.80;;;;;;;14.66;56.68;100949.83;106343;1300;21967;-68
2022/11/03 05:45:42;;;;;;;14.20;9.50;;;;;;;14.70;56.66;100953.84;106330;1300;21966;-66
2022/11/03 05:48:34;;;;;;;21.70;10.20;;;;;;;14.74;56.59;100958.38;106303;1299;21959;-66
2022/11/03 05:51:00;;;;;;;15.50;10.40;;;;;;;14.78;56.63;100960.22;106349;1300;21972;-63
2022/11/03 05:53:34;;;;;;;18.40;10.00;;;;;;;14.83;56.51;100962.94;106183;1299;22042;-66
2022/11/03 05:56:02;;;;;;;16.40;9.80;;;;;;;14.87;56.45;100965.16;106281;1301;22429;-66
2022/11/03 05:58:39;;;;;;;15.40;8.80;;;;;;;14.89;56.39;100962.11;106233;1301;24315;-63
2022/11/03 06:01:19;;;;;;;17.70;9.60;;;;;;;14.94;56.36;100966.79;106300;1300;21973;-66
2022/11/03 06:03:45;;;;;;;20.70;11.70;;;;;;;14.97;56.34;100967.24;106337;1297;22418;-69
2022/11/03 06:06:23;;;;;;;15.50;10.50;;;;;;;15.01;56.31;100968.91;106202;1300;21967;-64
2022/11/03 06:08:51;;;;;;;15.70;10.00;;;;;;;15.05;56.23;100967.60;106312;1300;21954;-64
2022/11/03 06:11:37;;;;;;;14.10;9.20;;;;;;;15.08;56.14;100970.20;106325;1299;21958;-64
2022/11/03 06:14:17;;;;;;;14.40;9.00;;;;;;;15.10;56.16;100974.40;106333;1300;23113;-64
2022/11/03 06:16:43;;;;;;;16.10;9.30;;;;;;;15.13;56.19;100981.03;106266;1300;21970;-68
2022/11/03 06:19:21;;;;;;;14.80;10.00;;;;;;;15.15;56.13;100980.65;106449;1298;21955;-67
2022/11/03 06:21:48;;;;;;;13.10;9.00;;;;;;;15.16;56.18;100982.40;106229;1300;21969;-68
2022/11/03 06:24:15;;;;;;;16.20;9.00;;;;;;;15.18;56.23;100980.06;106337;1300;22375;-68
2022/11/03 06:26:42;;;;;;;15.20;9.80;;;;;;;15.22;56.28;100976.80;106224;1300;21959;-67
2022/11/03 06:29:13;;;;;;;14.70;10.10;;;;;;;15.26;56.27;100974.92;106287;1300;22007;-68
2022/11/03 06:31:39;;;;;;;;;;;;;;;15.31;56.31;100976.77;106327;1300;23625;-65
2022/11/03 06:34:22;;;;;;;16.20;10.00;;;;;;;15.36;56.34;100974.36;106259;1300;21960;-67
2022/11/03 06:36:48;;;;;;;20.60;12.10;;;;;;;15.41;56.43;100971.95;106263;1301;21974;-67
2022/11/03 06:39:22;;;;;;;16.50;10.80;;;;;;;15.45;56.38;100973.96;106231;1300;21961;-67
2022/11/03 06:41:48;;;;;;;11.00;8.60;;;;;;;15.50;56.43;100974.02;106386;1299;24356;-69
2022/11/03 06:44:19;;;;;;;15.00;10.60;;;;;;;15.53;56.51;100976.61;106239;1298;21952;-67
2022/11/03 06:46:45;;;;;;;77.00;47.70;;;;;;;15.57;56.50;100977.59;106384;1300;22006;-67
2022/11/03 06:49:40;;;;;;;54.70;29.70;;;;;;;15.60;56.60;100978.39;106449;1300;21963;-67
2022/11/03 06:52:25;;;;;;;31.10;20.50;;;;;;;15.64;56.51;100981.86;106194;1300;21958;-69
2022/11/03 06:54:58;;;;;;;76.60;39.20;;;;;;;15.66;56.50;100982.16;106269;1297;21995;-68
2022/11/03 06:57:25;;;;;;;71.00;43.40;;;;;;;15.69;56.55;100979.42;106320;1300;22030;-67
2022/11/03 06:59:51;;;;;;;66.70;43.60;;;;;;;15.72;56.45;100976.87;106046;1303;21962;-68
2022/11/03 07:02:43;;;;;;;56.90;30.10;;;;;;;15.76;56.44;100975.21;106030;1300;21973;-67
2022/11/03 07:05:21;;;;;;;23.60;16.40;;;;;;;15.81;56.52;100972.94;106256;1293;21970;-68
2022/11/03 07:07:47;;;;;;;58.40;31.20;;;;;;;15.84;56.53;100973.59;106449;1300;22004;-69
2022/11/03 07:10:14;;;;;;;69.90;37.30;;;;;;;15.87;56.55;100974.59;106247;1291;21965;-68
2022/11/03 07:12:40;;;;;;;111.90;62.10;;;;;;;15.92;56.56;100972.36;106295;1299;21971;-68
2022/11/03 07:15:18;;;;;;;134.90;74.40;;;;;;;15.97;56.67;100972.77;106380;1299;21967;-68
2022/11/03 07:17:45;;;;;;;48.60;27.80;;;;;;;16.01;56.76;100970.19;106337;1300;22008;-69
2022/11/03 07:20:15;;;;;;;29.30;19.20;;;;;;;16.07;56.84;100964.20;106474;1300;23615;-69
2022/11/03 07:22:41;;;;;;;38.00;22.60;;;;;;;16.13;56.67;100960.14;106230;1300;21978;-67
2022/11/03 07:25:12;;;;;;;32.30;17.80;;;;;;;16.19;56.74;100961.41;107089;1298;21970;-69
2022/11/03 07:27:38;;;;;;;27.00;18.40;;;;;;;16.27;57.11;100965.98;106253;1300;21958;-67
2022/11/03 07:30:19;;;;;;;26.50;15.70;;;;;;;16.34;57.08;100963.66;106332;1300;21956;-70
2022/11/03 07:32:48;;;;;;;19.90;14.10;;;;;;;16.42;57.59;100961.66;106210;1298;21952;-70
2022/11/03 07:35:22;;;;;;;20.80;12.30;;;;;;;16.52;57.57;100961.94;106346;1300;23702;-69
2022/11/03 07:37:49;;;;;;;17.50;11.60;;;;;;;16.61;57.52;100957.44;106347;1300;23022;-70
2022/11/03 07:40:17;;;;;;;20.60;12.90;;;;;;;16.68;57.74;100956.70;106181;1300;21968;-68
2022/11/03 07:42:42;;;;;;;20.20;11.80;;;;;;;16.79;57.89;100956.54;106339;1300;21962;-66
2022/11/03 07:45:38;;;;;;;23.80;14.30;;;;;;;16.94;57.86;100954.91;106201;1299;21954;-68
2022/11/03 07:48:32;;;;;;;32.90;17.40;;;;;;;17.11;57.44;100955.67;106288;1300;22052;-67
2022/11/03 07:51:00;;;;;;;24.90;12.70;;;;;;;17.24;57.35;100953.31;106241;1300;21974;-68
2022/11/03 07:56:44;;;;;;;20.80;12.20;;;;;;;17.32;56.87;100961.23;97274;1303;22728;-88
2022/11/03 07:59:10;;;;;;;19.70;11.90;;;;;;;17.33;56.62;100962.08;107183;1303;22337;-88
2022/11/03 08:01:54;;;;;;;14.70;10.40;;;;;;;17.33;56.50;100964.20;106562;1303;21950;-90
2022/11/03 08:04:30;;;;;;;17.10;11.80;;;;;;;17.33;56.46;100965.27;106387;1303;21966;-88
2022/11/03 08:06:56;;;;;;;20.20;13.00;;;;;;;17.33;56.37;100963.52;106437;1303;22044;-88
2022/11/03 08:09:23;;;;;;;20.80;12.70;;;;;;;17.33;56.31;100959.08;106561;1303;21961;-88
2022/11/03 08:11:49;;;;;;;18.50;12.00;;;;;;;17.32;56.30;100957.84;106352;1303;21951;-89
2022/11/03 08:14:14;;;;;;;17.60;11.30;;;;;;;17.34;56.20;100958.34;106424;1303;23109;-88
2022/11/03 08:16:41;;;;;;;17.30;12.10;;;;;;;17.37;56.16;100957.36;106490;1303;23811;-87
2022/11/03 08:19:08;;;;;;;16.50;11.50;;;;;;;17.38;56.06;100953.06;106407;1303;21965;-87
2022/11/03 08:21:35;;;;;;;21.40;11.90;;;;;;;17.45;56.27;100952.13;106399;1303;22402;-89
2022/11/03 08:24:01;;;;;;;15.60;10.00;;;;;;;17.57;56.36;100945.90;106421;1303;22001;-88
2022/11/03 08:26:28;;;;;;;15.60;11.10;;;;;;;17.71;56.28;100949.89;106455;1303;22008;-86
2022/11/03 08:28:53;;;;;;;16.10;11.00;;;;;;;17.88;56.03;100954.13;106395;1303;22021;-87
2022/11/03 08:31:23;;;;;;;16.10;9.10;;;;;;;18.06;55.80;100954.79;106358;1303;21962;-86
2022/11/03 08:33:49;;;;;;;13.50;9.10;;;;;;;18.23;55.32;100954.39;106380;1303;22434;-88
2022/11/03 08:36:16;;;;;;;15.50;8.50;;;;;;;18.36;55.06;100957.28;106439;1302;22072;-86
2022/11/03 08:38:43;;;;;;;13.10;8.70;;;;;;;18.45;54.85;100957.49;106398;1303;23504;-85
2022/11/03 08:41:10;;;;;;;14.20;9.30;;;;;;;18.50;54.56;100959.27;106259;1304;23734;-85
2022/11/03 08:43:36;;;;;;;13.00;9.20;;;;;;;18.54;54.42;100955.20;106485;1303;22780;-85
2022/11/03 08:46:02;;;;;;;11.80;8.70;;;;;;;18.62;54.26;100949.23;106538;1303;22919;-89
2022/11/03 08:48:28;;;;;;;15.40;9.80;;;;;;;18.75;54.41;100951.44;106293;1303;23592;-87
2022/11/03 08:50:55;;;;;;;18.00;11.10;;;;;;;18.95;54.64;100949.09;106419;1303;23053;-89
2022/11/03 08:53:23;;;;;;;13.30;9.80;;;;;;;19.17;54.08;100948.84;106362;1297;22002;-89
2022/11/03 08:55:49;;;;;;;12.40;9.00;;;;;;;19.28;53.37;100943.41;106721;1297;22461;-86
2022/11/03 08:58:15;;;;;;;17.00;8.70;;;;;;;19.29;52.67;100942.09;106491;1302;21958;-90
2022/11/03 09:00:41;;;;;;;13.60;7.90;;;;;;;19.28;52.34;100937.35;106546;1303;23078;-87
2022/11/03 09:03:07;;;;;;;10.70;7.50;;;;;;;19.37;52.88;100933.59;106485;1302;21965;-88
2022/11/03 09:05:33;;;;;;;11.70;8.50;;;;;;;19.54;52.34;100932.77;106536;1296;21956;-86
2022/11/03 09:07:59;;;;;;;13.80;8.20;;;;;;;19.61;51.47;100932.31;106460;1303;23686;-87
2022/11/03 09:10:26;;;;;;;15.70;10.40;;;;;;;19.70;51.73;100925.17;106474;1299;21981;-87
2022/11/03 09:12:54;;;;;;;12.70;9.30;;;;;;;19.94;51.85;100924.21;106293;1303;24393;-86
2022/11/03 09:15:20;;;;;;;13.50;9.00;;;;;;;20.15;51.36;100923.48;106407;1302;23655;-87
2022/11/03 09:17:49;;;;;;;11.90;9.10;;;;;;;20.29;51.38;100918.20;106418;1303;22942;-84
2022/11/03 09:20:15;;;;;;;14.80;9.50;;;;;;;20.41;50.54;100914.31;106189;1304;23774;-84
2022/11/03 09:22:42;;;;;;;12.90;8.50;;;;;;;20.58;50.78;100912.63;106421;1302;21962;-84
2022/11/03 09:25:08;;;;;;;11.40;8.10;;;;;;;20.77;49.50;100915.20;106450;1303;21960;-85
2022/11/03 09:27:34;;;;;;;13.20;8.20;;;;;;;20.81;48.63;100913.04;106392;1297;21972;-84
2022/11/03 09:30:00;;;;;;;12.40;8.10;;;;;;;20.77;48.13;100913.73;106429;1303;21989;-84
2022/11/03 09:32:27;;;;;;;10.70;7.50;;;;;;;20.73;48.28;100914.96;106144;1303;21967;-84
2022/11/03 09:34:53;;;;;;;13.50;8.10;;;;;;;20.68;48.94;100913.98;106360;1304;21959;-85
2022/11/03 09:37:21;;;;;;;12.40;7.90;;;;;;;20.59;48.90;100913.66;106315;1304;23079;-85
2022/11/03 09:39:47;;;;;;;10.00;7.40;;;;;;;20.54;47.92;100913.35;106179;1306;21974;-84
2022/11/03 09:42:13;;;;;;;11.20;7.60;;;;;;;20.55;47.59;100913.86;106351;1303;23513;-83
2022/11/03 09:44:39;;;;;;;14.60;7.60;;;;;;;20.55;47.14;100906.20;106325;1304;23689;-85
2022/11/03 09:47:05;;;;;;;12.10;7.40;;;;;;;20.67;47.43;100906.52;106483;1303;22026;-87
2022/11/03 09:49:33;;;;;;;12.10;8.30;;;;;;;20.83;46.98;100904.55;106294;1304;23327;-86
2022/11/03 09:52:00;;;;;;;10.40;6.90;;;;;;;20.84;45.75;100901.86;106438;1302;23660;-86
2022/11/03 09:54:30;;;;;;;13.00;6.20;;;;;;;20.80;44.84;100901.13;106450;1303;21955;-85
2022/11/03 09:57:04;;;;;;;12.80;6.40;;;;;;;20.79;44.83;100899.42;106440;1303;21962;-85
2022/11/03 09:59:30;;;;;;;9.60;6.40;;;;;;;20.89;45.85;100893.43;106477;1303;22857;-85
2022/11/03 10:01:57;;;;;;;8.50;6.20;;;;;;;21.06;45.13;100891.88;106435;1304;21948;-85
2022/11/03 10:04:26;;;;;;;10.20;6.80;;;;;;;21.29;44.65;100882.96;106472;1303;21954;-84
2022/11/03 10:06:54;;;;;;;10.20;6.00;;;;;;;21.42;43.66;100878.56;106557;1303;23672;-88
2022/11/03 10:09:22;;;;;;;11.30;6.40;;;;;;;21.51;43.31;100875.95;106396;1303;23051;-87
2022/11/03 10:11:48;;;;;;;10.00;6.80;;;;;;;21.64;44.17;100865.00;106351;1302;21975;-87
2022/11/03 10:14:15;;;;;;;14.20;8.00;;;;;;;21.78;43.69;100858.40;106189;1304;23151;-84
2022/11/03 10:16:42;;;;;;;11.80;6.80;;;;;;;21.95;42.96;100853.04;106461;1304;21964;-86
2022/11/03 10:19:12;;;;;;;11.40;5.50;;;;;;;22.11;43.18;100852.19;106030;1303;21974;-86
2022/11/03 10:21:40;;;;;;;9.90;6.50;;;;;;;22.37;43.82;100849.91;106403;1303;21958;-88
2022/11/03 10:24:11;;;;;;;9.00;5.30;;;;;;;22.47;40.73;100846.02;106428;1303;23074;-87
2022/11/03 10:26:43;;;;;;;10.60;6.20;;;;;;;22.53;41.02;100844.59;106498;1303;21954;-87
2022/11/03 10:29:18;;;;;;;11.20;7.00;;;;;;;22.68;41.85;100838.61;106502;1302;21971;-88
2022/11/03 10:31:49;;;;;;;8.10;4.70;;;;;;;22.79;39.96;100840.52;106338;1304;21989;-87
2022/11/03 10:34:38;;;;;;;6.90;4.30;;;;;;;22.75;39.05;100838.74;105994;1304;23211;-86
2022/11/03 10:37:11;;;;;;;6.70;4.30;;;;;;;22.73;39.41;100834.59;106366;1303;23074;-86
2022/11/03 10:39:37;;;;;;;6.20;3.90;;;;;;;22.66;38.92;100830.83;106468;1294;22443;-86
2022/11/03 10:42:04;;;;;;;7.80;5.20;;;;;;;22.56;38.97;100828.01;106353;1304;21978;-86
2022/11/03 10:44:30;;;;;;;16.20;11.70;;;;;;;22.35;38.61;100823.56;106437;1302;23700;-88
2022/11/03 10:47:00;;;;;;;19.40;9.80;;;;;;;22.33;40.44;100816.54;106495;1290;23057;-86
2022/11/03 10:49:35;;;;;;;12.00;6.40;;;;;;;22.38;40.26;100816.25;106430;1303;21961;-86
2022/11/03 10:52:23;;;;;;;6.90;4.80;;;;;;;22.43;39.61;100810.80;106176;1303;23836;-86
2022/11/03 10:54:50;;;;;;;9.80;6.00;;;;;;;22.58;39.57;100806.76;106394;1303;21965;-88
2022/11/03 10:57:17;;;;;;;6.40;4.30;;;;;;;22.68;38.06;100804.98;106321;1303;23161;-86
2022/11/03 10:59:45;;;;;;;6.80;4.00;;;;;;;22.69;36.14;100802.41;106310;1304;21965;-86
2022/11/03 11:02:15;;;;;;;6.80;4.20;;;;;;;22.75;36.71;100797.95;106311;1306;23485;-85
2022/11/03 11:04:42;;;;;;;6.50;4.40;;;;;;;22.91;38.55;100793.52;106391;1303;23602;-85
2022/11/03 11:07:20;;;;;;;11.70;4.80;;;;;;;23.07;38.91;100791.13;106321;1303;21960;-85
2022/11/03 11:09:47;;;;;;;9.20;5.60;;;;;;;23.16;37.55;100788.27;106469;1301;21969;-88
2022/11/03 11:12:16;;;;;;;10.00;4.40;;;;;;;23.21;36.12;100790.71;106529;1303;21957;-84
2022/11/03 11:14:53;;;;;;;10.80;4.70;;;;;;;23.30;36.64;100789.46;106471;1303;21966;-84
2022/11/03 11:17:41;;;;;;;7.20;4.10;;;;;;;23.42;36.34;100788.04;106482;1302;21967;-84
2022/11/03 11:20:29;;;;;;;5.80;4.00;;;;;;;23.51;36.44;100790.22;106318;1306;22029;-85
2022/11/03 11:22:55;;;;;;;6.60;4.40;;;;;;;23.62;35.95;100791.14;106477;1304;22005;-84
2022/11/03 11:25:21;;;;;;;6.30;3.70;;;;;;;23.66;36.58;100788.61;106410;1307;21944;-84
2022/11/03 11:27:50;;;;;;;8.30;4.50;;;;;;;23.60;37.18;100790.73;106481;1307;22122;-84
2022/11/03 11:30:22;;;;;;;5.80;4.10;;;;;;;23.43;37.23;100786.90;106347;1305;23593;-82
2022/11/03 11:33:13;;;;;;;9.60;4.60;;;;;;;23.27;36.43;100783.36;106591;1303;23099;-84
2022/11/03 11:35:39;;;;;;;8.10;4.80;;;;;;;23.11;35.95;100785.89;106494;1303;22667;-84
2022/11/03 11:38:42;;;;;;;6.80;4.50;;;;;;;22.89;34.98;100784.84;106547;1304;22200;-85
2022/11/03 11:41:08;;;;;;;7.10;4.00;;;;;;;22.48;34.90;100785.33;106482;1305;22055;-84
2022/11/03 11:43:35;;;;;;;8.60;5.20;;;;;;;22.18;36.64;100784.27;106538;1303;22755;-84